sensor_id;sensor_type;location;lat;lon;timestamp;temperature;humidity
25170;DHT22;13129;48.012;10.352;2023-11-21T04:33:28;5.60;99.90
25170;DHT22;13129;48.012;10.352;2023-11-21T04:35:54;5.60;99.90
25170;DHT22;13129;48.012;10.352;2023-11-21T04:38:20;5.60;99.90
25170;DHT22;13129;48.012;10.352;2023-11-21T04:40:45;5.50;99.90
25170;DHT22;13129;48.012;10.352;2023-11-21T04:43:11;5.50;99.90
25170;DHT22;13129;48.012;10.352;2023-11-21T04:45:37;5.50;99.90
25170;DHT22;13129;48.012;10.352;2023-11-21T04:48:03;5.60;99.90
25170;DHT22;13129;48.012;10.352;2023-11-21T04:50:29;5.50;99.90
25170;DHT22;13129;48.012;10.352;2023-11-21T04:52:54;5.50;99.90
25170;DHT22;13129;48.012;10.352;2023-11-21T04:55:20;5.50;99.90
25170;DHT22;13129;48.012;10.352;2023-11-21T04:57:45;5.40;99.90
25170;DHT22;13129;48.012;10.352;2023-11-21T05:00:12;5.40;99.90
25170;DHT22;13129;48.012;10.352;2023-11-21T05:02:39;5.40;99.90
25170;DHT22;13129;48.012;10.352;2023-11-21T05:05:06;5.50;99.90
25170;DHT22;13129;48.012;10.352;2023-11-21T05:07:33;5.50;99.90
25170;DHT22;13129;48.012;10.352;2023-11-21T05:10:00;5.50;99.90
25170;DHT22;13129;48.012;10.352;2023-11-21T05:12:31;5.60;99.90
25170;DHT22;13129;48.012;10.352;2023-11-21T05:15:07;5.40;99.90
25170;DHT22;13129;48.012;10.352;2023-11-21T05:17:36;5.40;99.90
25170;DHT22;13129;48.012;10.352;2023-11-21T05:20:03;5.40;99.90
25170;DHT22;13129;48.012;10.352;2023-11-21T05:22:30;5.40;99.90
25170;DHT22;13129;48.012;10.352;2023-11-21T05:24:55;5.40;99.90
25170;DHT22;13129;48.012;10.352;2023-11-21T05:27:21;5.40;99.90
25170;DHT22;13129;48.012;10.352;2023-11-21T05:29:46;5.40;99.90
25170;DHT22;13129;48.012;10.352;2023-11-21T05:32:12;5.40;99.90
25170;DHT22;13129;48.012;10.352;2023-11-21T05:34:38;5.40;99.90
25170;DHT22;13129;48.012;10.352;2023-11-21T05:37:03;5.40;99.90
25170;DHT22;13129;48.012;10.352;2023-11-21T05:39:31;5.40;99.90
25170;DHT22;13129;48.012;10.352;2023-11-21T05:41:57;5.40;99.90
25170;DHT22;13129;48.012;10.352;2023-11-21T05:44:23;5.40;99.90
25170;DHT22;13129;48.012;10.352;2023-11-21T05:46:49;5.50;99.90
25170;DHT22;13129;48.012;10.352;2023-11-21T05:49:15;5.40;99.90
25170;DHT22;13129;48.012;10.352;2023-11-21T05:51:42;5.40;99.90
25170;DHT22;13129;48.012;10.352;2023-11-21T05:54:07;5.40;99.90
25170;DHT22;13129;48.012;10.352;2023-11-21T05:56:33;5.40;99.90
25170;DHT22;13129;48.012;10.352;2023-11-21T05:58:59;5.40;99.90
25170;DHT22;13129;48.012;10.352;2023-11-21T06:01:25;5.40;99.90
25170;DHT22;13129;48.012;10.352;2023-11-21T06:03:54;5.40;99.90
25170;DHT22;13129;48.012;10.352;2023-11-21T06:06:20;5.50;99.90
25170;DHT22;13129;48.012;10.352;2023-11-21T06:08:48;5.50;99.90
25170;DHT22;13129;48.012;10.352;2023-11-21T06:11:14;5.50;99.90
25170;DHT22;13129;48.012;10.352;2023-11-21T06:13:40;5.50;99.90
25170;DHT22;13129;48.012;10.352;2023-11-21T06:16:06;5.60;99.90
25170;DHT22;13129;48.012;10.352;2023-11-21T06:18:31;5.60;99.90
25170;DHT22;13129;48.012;10.352;2023-11-21T06:20:57;5.60;99.90
25170;DHT22;13129;48.012;10.352;2023-11-21T06:23:24;5.60;99.90
25170;DHT22;13129;48.012;10.352;2023-11-21T06:25:49;5.60;99.90
25170;DHT22;13129;48.012;10.352;2023-11-21T06:28:15;5.60;99.90
25170;DHT22;13129;48.012;10.352;2023-11-21T06:30:43;5.60;99.90
25170;DHT22;13129;48.012;10.352;2023-11-21T06:33:09;5.60;99.90
25170;DHT22;13129;48.012;10.352;2023-11-21T06:35:35;5.70;99.90
25170;DHT22;13129;48.012;10.352;2023-11-21T06:38:01;5.80;99.90
25170;DHT22;13129;48.012;10.352;2023-11-21T06:40:28;5.70;99.90
25170;DHT22;13129;48.012;10.352;2023-11-21T06:42:53;5.70;99.90
25170;DHT22;13129;48.012;10.352;2023-11-21T06:45:19;5.80;99.90
25170;DHT22;13129;48.012;10.352;2023-11-21T06:47:45;5.80;99.90
25170;DHT22;13129;48.012;10.352;2023-11-21T06:50:11;5.80;99.90
25170;DHT22;13129;48.012;10.352;2023-11-21T06:52:37;5.80;99.90
25170;DHT22;13129;48.012;10.352;2023-11-21T06:55:04;5.80;99.90
25170;DHT22;13129;48.012;10.352;2023-11-21T06:57:30;5.80;99.90
25170;DHT22;13129;48.012;10.352;2023-11-21T06:59:56;5.80;99.90
25170;DHT22;13129;48.012;10.352;2023-11-21T07:02:22;5.80;99.90
25170;DHT22;13129;48.012;10.352;2023-11-21T07:04:48;5.80;99.90
25170;DHT22;13129;48.012;10.352;2023-11-21T07:07:13;5.80;99.90
25170;DHT22;13129;48.012;10.352;2023-11-21T07:09:39;5.80;99.90
25170;DHT22;13129;48.012;10.352;2023-11-21T07:12:05;6.00;99.90
25170;DHT22;13129;48.012;10.352;2023-11-21T07:14:33;5.90;99.90
25170;DHT22;13129;48.012;10.352;2023-11-21T07:16:59;5.90;99.90
25170;DHT22;13129;48.012;10.352;2023-11-21T07:19:24;5.90;99.90
25170;DHT22;13129;48.012;10.352;2023-11-21T07:21:50;5.90;99.90
25170;DHT22;13129;48.012;10.352;2023-11-21T07:24:16;5.90;99.90
25170;DHT22;13129;48.012;10.352;2023-11-21T07:26:42;6.00;99.90
25170;DHT22;13129;48.012;10.352;2023-11-21T07:29:08;6.10;99.90
25170;DHT22;13129;48.012;10.352;2023-11-21T07:31:34;6.00;99.90
25170;DHT22;13129;48.012;10.352;2023-11-21T07:34:00;6.00;99.90
25170;DHT22;13129;48.012;10.352;2023-11-21T07:36:26;5.90;99.90
25170;DHT22;13129;48.012;10.352;2023-11-21T07:38:52;6.10;99.90
25170;DHT22;13129;48.012;10.352;2023-11-21T07:41:18;6.10;99.90
25170;DHT22;13129;48.012;10.352;2023-11-21T07:43:47;6.00;99.90
25170;DHT22;13129;48.012;10.352;2023-11-21T07:46:13;6.10;99.90
25170;DHT22;13129;48.012;10.352;2023-11-21T07:48:39;6.10;99.90
25170;DHT22;13129;48.012;10.352;2023-11-21T07:51:05;6.10;99.90
25170;DHT22;13129;48.012;10.352;2023-11-21T07:53:32;6.10;99.90
25170;DHT22;13129;48.012;10.352;2023-11-21T07:55:58;6.20;99.90
25170;DHT22;13129;48.012;10.352;2023-11-21T07:58:27;6.20;99.90
25170;DHT22;13129;48.012;10.352;2023-11-21T08:00:53;6.20;99.90
25170;DHT22;13129;48.012;10.352;2023-11-21T08:03:19;6.30;99.90
25170;DHT22;13129;48.012;10.352;2023-11-21T08:05:45;6.40;99.90
25170;DHT22;13129;48.012;10.352;2023-11-21T08:08:11;6.60;99.90
25170;DHT22;13129;48.012;10.352;2023-11-21T08:10:37;6.70;99.90
25170;DHT22;13129;48.012;10.352;2023-11-21T08:13:04;6.80;99.90
25170;DHT22;13129;48.012;10.352;2023-11-21T08:15:30;6.90;99.90
25170;DHT22;13129;48.012;10.352;2023-11-21T08:17:59;7.00;99.90
25170;DHT22;13129;48.012;10.352;2023-11-21T08:20:25;7.10;99.90
25170;DHT22;13129;48.012;10.352;2023-11-21T08:22:50;7.20;99.90
25170;DHT22;13129;48.012;10.352;2023-11-21T08:25:18;7.50;99.90
25170;DHT22;13129;48.012;10.352;2023-11-21T08:27:45;7.70;99.90
25170;DHT22;13129;48.012;10.352;2023-11-21T08:30:11;8.10;99.90
25170;DHT22;13129;48.012;10.352;2023-11-21T08:32:38;8.50;99.90
25170;DHT22;13129;48.012;10.352;2023-11-21T08:35:03;8.80;99.90
25170;DHT22;13129;48.012;10.352;2023-11-21T08:37:30;9.00;99.90
25170;DHT22;13129;48.012;10.352;2023-11-21T08:39:58;9.30;99.90
25170;DHT22;13129;48.012;10.352;2023-11-21T08:42:29;9.30;99.90
25170;DHT22;13129;48.012;10.352;2023-11-21T08:44:55;9.40;99.90
25170;DHT22;13129;48.012;10.352;2023-11-21T08:47:23;9.30;99.90
25170;DHT22;13129;48.012;10.352;2023-11-21T08:49:50;9.10;99.90
25170;DHT22;13129;48.012;10.352;2023-11-21T08:52:18;9.00;99.90
25170;DHT22;13129;48.012;10.352;2023-11-21T08:54:44;8.80;99.90
25170;DHT22;13129;48.012;10.352;2023-11-21T08:57:10;8.70;99.90
25170;DHT22;13129;48.012;10.352;2023-11-21T08:59:36;8.70;99.90
25170;DHT22;13129;48.012;10.352;2023-11-21T09:02:02;8.50;99.90
25170;DHT22;13129;48.012;10.352;2023-11-21T09:04:27;8.30;99.90
25170;DHT22;13129;48.012;10.352;2023-11-21T09:06:53;8.20;99.90
25170;DHT22;13129;48.012;10.352;2023-11-21T09:09:18;8.10;99.90
25170;DHT22;13129;48.012;10.352;2023-11-21T09:11:45;8.10;99.90
25170;DHT22;13129;48.012;10.352;2023-11-21T09:14:11;8.00;99.90
25170;DHT22;13129;48.012;10.352;2023-11-21T09:16:40;7.90;99.90
25170;DHT22;13129;48.012;10.352;2023-11-21T09:19:06;7.90;99.90
25170;DHT22;13129;48.012;10.352;2023-11-21T09:21:32;7.80;99.90
25170;DHT22;13129;48.012;10.352;2023-11-21T09:23:59;7.80;99.90
25170;DHT22;13129;48.012;10.352;2023-11-21T09:26:25;7.70;99.90
25170;DHT22;13129;48.012;10.352;2023-11-21T09:28:51;7.80;99.90
25170;DHT22;13129;48.012;10.352;2023-11-21T09:31:18;8.00;99.90
25170;DHT22;13129;48.012;10.352;2023-11-21T09:33:48;8.00;99.90
25170;DHT22;13129;48.012;10.352;2023-11-21T09:36:13;8.00;99.90
25170;DHT22;13129;48.012;10.352;2023-11-21T09:38:40;8.10;99.90
25170;DHT22;13129;48.012;10.352;2023-11-21T09:41:34;8.30;99.90
25170;DHT22;13129;48.012;10.352;2023-11-21T09:44:09;8.50;99.90
25170;DHT22;13129;48.012;10.352;2023-11-21T09:46:41;8.70;99.90
25170;DHT22;13129;48.012;10.352;2023-11-21T09:49:09;8.80;99.90
25170;DHT22;13129;48.012;10.352;2023-11-21T09:51:43;9.00;99.90
25170;DHT22;13129;48.012;10.352;2023-11-21T09:54:11;9.20;99.90
25170;DHT22;13129;48.012;10.352;2023-11-21T09:56:40;9.40;99.90
25170;DHT22;13129;48.012;10.352;2023-11-21T09:59:06;9.50;99.90
25170;DHT22;13129;48.012;10.352;2023-11-21T10:01:36;9.60;99.90
25170;DHT22;13129;48.012;10.352;2023-11-21T10:04:03;9.60;99.90
25170;DHT22;13129;48.012;10.352;2023-11-21T10:06:28;9.60;99.90
25170;DHT22;13129;48.012;10.352;2023-11-21T10:08:56;9.40;99.90
25170;DHT22;13129;48.012;10.352;2023-11-21T10:11:27;9.30;99.90
25170;DHT22;13129;48.012;10.352;2023-11-21T10:13:57;9.30;99.90
25170;DHT22;13129;48.012;10.352;2023-11-21T10:16:26;9.10;99.90
25170;DHT22;13129;48.012;10.352;2023-11-21T10:18:52;9.00;99.90
25170;DHT22;13129;48.012;10.352;2023-11-21T10:21:18;9.00;99.90
25170;DHT22;13129;48.012;10.352;2023-11-21T10:23:44;8.90;99.90
25170;DHT22;13129;48.012;10.352;2023-11-21T10:26:12;9.00;99.90
25170;DHT22;13129;48.012;10.352;2023-11-21T10:28:55;9.00;99.90
25170;DHT22;13129;48.012;10.352;2023-11-21T10:31:21;9.10;99.90
25170;DHT22;13129;48.012;10.352;2023-11-21T10:33:49;9.30;99.90
25170;DHT22;13129;48.012;10.352;2023-11-21T10:36:25;9.50;99.90
25170;DHT22;13129;48.012;10.352;2023-11-21T10:38:52;9.60;99.90
25170;DHT22;13129;48.012;10.352;2023-11-21T10:41:18;9.60;99.90
25170;DHT22;13129;48.012;10.352;2023-11-21T10:43:44;9.70;99.90
25170;DHT22;13129;48.012;10.352;2023-11-21T10:46:10;9.60;99.90
25170;DHT22;13129;48.012;10.352;2023-11-21T10:48:35;9.60;99.90
25170;DHT22;13129;48.012;10.352;2023-11-21T10:51:06;9.60;99.90
25170;DHT22;13129;48.012;10.352;2023-11-21T10:53:32;9.40;99.90
25170;DHT22;13129;48.012;10.352;2023-11-21T10:56:06;9.40;99.90
25170;DHT22;13129;48.012;10.352;2023-11-21T10:58:35;9.20;99.90
25170;DHT22;13129;48.012;10.352;2023-11-21T11:01:02;9.10;99.90
25170;DHT22;13129;48.012;10.352;2023-11-21T11:03:32;9.00;99.90
25170;DHT22;13129;48.012;10.352;2023-11-21T11:05:59;8.90;99.90
25170;DHT22;13129;48.012;10.352;2023-11-21T11:08:26;8.80;99.90
25170;DHT22;13129;48.012;10.352;2023-11-21T11:10:53;8.70;99.90
25170;DHT22;13129;48.012;10.352;2023-11-21T11:13:18;8.70;99.90
25170;DHT22;13129;48.012;10.352;2023-11-21T11:15:47;8.70;99.90
25170;DHT22;13129;48.012;10.352;2023-11-21T11:18:14;8.80;99.90
25170;DHT22;13129;48.012;10.352;2023-11-21T11:20:43;8.70;99.90
25170;DHT22;13129;48.012;10.352;2023-11-21T11:26:47;8.80;99.90
25170;DHT22;13129;48.012;10.352;2023-11-21T11:32:17;8.90;99.90
25170;DHT22;13129;48.012;10.352;2023-11-21T11:34:53;9.00;99.90
25170;DHT22;13129;48.012;10.352;2023-11-21T11:37:22;9.10;99.90
25170;DHT22;13129;48.012;10.352;2023-11-21T11:40:12;9.10;99.90
25170;DHT22;13129;48.012;10.352;2023-11-21T11:43:01;9.10;99.90
25170;DHT22;13129;48.012;10.352;2023-11-21T11:45:34;9.00;99.90
25170;DHT22;13129;48.012;10.352;2023-11-21T11:48:07;9.10;99.90
25170;DHT22;13129;48.012;10.352;2023-11-21T11:50:33;9.00;99.90
25170;DHT22;13129;48.012;10.352;2023-11-21T11:53:15;8.90;99.90
25170;DHT22;13129;48.012;10.352;2023-11-21T11:55:41;8.70;99.90
25170;DHT22;13129;48.012;10.352;2023-11-21T11:58:07;8.70;99.90
25170;DHT22;13129;48.012;10.352;2023-11-21T12:00:34;8.60;99.90
25170;DHT22;13129;48.012;10.352;2023-11-21T12:03:04;8.50;99.90
25170;DHT22;13129;48.012;10.352;2023-11-21T12:05:32;8.50;99.90
25170;DHT22;13129;48.012;10.352;2023-11-21T12:08:01;8.40;99.90
25170;DHT22;13129;48.012;10.352;2023-11-21T12:10:29;8.40;99.90
25170;DHT22;13129;48.012;10.352;2023-11-21T12:15:25;8.40;99.90
25170;DHT22;13129;48.012;10.352;2023-11-21T12:17:52;8.30;99.90
25170;DHT22;13129;48.012;10.352;2023-11-21T12:20:22;8.20;99.90
25170;DHT22;13129;48.012;10.352;2023-11-21T12:22:53;8.20;99.90
25170;DHT22;13129;48.012;10.352;2023-11-21T12:25:23;8.20;99.90
25170;DHT22;13129;48.012;10.352;2023-11-21T12:27:52;8.20;99.90
25170;DHT22;13129;48.012;10.352;2023-11-21T12:30:22;8.10;99.90
25170;DHT22;13129;48.012;10.352;2023-11-21T12:32:52;8.10;99.90
25170;DHT22;13129;48.012;10.352;2023-11-21T12:35:19;8.10;99.90
25170;DHT22;13129;48.012;10.352;2023-11-21T12:37:45;8.00;99.90
25170;DHT22;13129;48.012;10.352;2023-11-21T12:40:12;8.00;99.90
25170;DHT22;13129;48.012;10.352;2023-11-21T12:42:45;8.00;99.90
25170;DHT22;13129;48.012;10.352;2023-11-21T12:45:23;8.10;99.90
25170;DHT22;13129;48.012;10.352;2023-11-21T12:50:30;8.00;99.90
25170;DHT22;13129;48.012;10.352;2023-11-21T12:53:10;8.10;99.90
25170;DHT22;13129;48.012;10.352;2023-11-21T12:55:38;8.00;99.90
25170;DHT22;13129;48.012;10.352;2023-11-21T12:58:06;8.10;99.90
25170;DHT22;13129;48.012;10.352;2023-11-21T13:00:36;8.20;99.90
25170;DHT22;13129;48.012;10.352;2023-11-21T13:03:08;8.30;99.90
25170;DHT22;13129;48.012;10.352;2023-11-21T13:05:35;8.50;99.90
25170;DHT22;13129;48.012;10.352;2023-11-21T13:08:08;8.60;99.90
25170;DHT22;13129;48.012;10.352;2023-11-21T13:10:36;8.70;99.90
25170;DHT22;13129;48.012;10.352;2023-11-21T13:13:06;8.80;99.90
25170;DHT22;13129;48.012;10.352;2023-11-21T13:15:34;8.80;99.90
25170;DHT22;13129;48.012;10.352;2023-11-21T13:18:02;8.80;99.90
25170;DHT22;13129;48.012;10.352;2023-11-21T13:20:28;8.80;99.90
25170;DHT22;13129;48.012;10.352;2023-11-21T13:22:56;8.80;99.90
25170;DHT22;13129;48.012;10.352;2023-11-21T13:25:27;8.70;99.90
25170;DHT22;13129;48.012;10.352;2023-11-21T13:27:57;8.50;99.90
25170;DHT22;13129;48.012;10.352;2023-11-21T13:30:28;8.40;99.90
25170;DHT22;13129;48.012;10.352;2023-11-21T13:33:04;8.40;99.90
25170;DHT22;13129;48.012;10.352;2023-11-21T13:35:33;8.10;99.90
25170;DHT22;13129;48.012;10.352;2023-11-21T13:38:12;8.10;99.90
25170;DHT22;13129;48.012;10.352;2023-11-21T13:40:39;8.10;99.90
25170;DHT22;13129;48.012;10.352;2023-11-21T13:43:12;8.30;99.90
25170;DHT22;13129;48.012;10.352;2023-11-21T13:45:39;8.30;99.90
25170;DHT22;13129;48.012;10.352;2023-11-21T13:48:06;8.30;99.90
25170;DHT22;13129;48.012;10.352;2023-11-21T13:50:36;8.40;99.90
25170;DHT22;13129;48.012;10.352;2023-11-21T13:53:02;8.40;99.90
25170;DHT22;13129;48.012;10.352;2023-11-21T13:55:34;8.40;99.90
25170;DHT22;13129;48.012;10.352;2023-11-21T13:58:01;8.30;99.90
25170;DHT22;13129;48.012;10.352;2023-11-21T14:00:27;8.30;99.90
25170;DHT22;13129;48.012;10.352;2023-11-21T14:03:07;8.30;99.90
25170;DHT22;13129;48.012;10.352;2023-11-21T14:05:43;8.20;99.90
25170;DHT22;13129;48.012;10.352;2023-11-21T14:08:10;8.20;99.90
25170;DHT22;13129;48.012;10.352;2023-11-21T14:10:37;8.20;99.90
25170;DHT22;13129;48.012;10.352;2023-11-21T14:13:09;8.20;99.90
25170;DHT22;13129;48.012;10.352;2023-11-21T14:15:41;8.10;99.90
25170;DHT22;13129;48.012;10.352;2023-11-21T14:18:11;8.10;99.90
25170;DHT22;13129;48.012;10.352;2023-11-21T14:20:40;8.00;99.90
25170;DHT22;13129;48.012;10.352;2023-11-21T14:23:07;8.10;99.90
25170;DHT22;13129;48.012;10.352;2023-11-21T14:25:34;8.10;99.90
25170;DHT22;13129;48.012;10.352;2023-11-21T14:28:00;8.10;99.90
25170;DHT22;13129;48.012;10.352;2023-11-21T14:30:25;8.10;99.90
25170;DHT22;13129;48.012;10.352;2023-11-21T14:32:52;8.10;99.90
25170;DHT22;13129;48.012;10.352;2023-11-21T14:35:18;8.10;99.90
25170;DHT22;13129;48.012;10.352;2023-11-21T14:37:44;8.10;99.90
25170;DHT22;13129;48.012;10.352;2023-11-21T14:40:12;8.00;99.90
25170;DHT22;13129;48.012;10.352;2023-11-21T14:42:43;8.00;99.90
25170;DHT22;13129;48.012;10.352;2023-11-21T14:45:13;8.00;99.90
25170;DHT22;13129;48.012;10.352;2023-11-21T14:47:42;7.90;99.90
25170;DHT22;13129;48.012;10.352;2023-11-21T14:50:13;7.90;99.90
25170;DHT22;13129;48.012;10.352;2023-11-21T14:52:57;7.80;99.90
25170;DHT22;13129;48.012;10.352;2023-11-21T14:55:24;7.80;99.90
25170;DHT22;13129;48.012;10.352;2023-11-21T14:57:50;7.70;99.90
25170;DHT22;13129;48.012;10.352;2023-11-21T15:00:17;7.60;99.90
25170;DHT22;13129;48.012;10.352;2023-11-21T15:03:02;7.60;99.90
25170;DHT22;13129;48.012;10.352;2023-11-21T15:05:28;7.60;99.90
25170;DHT22;13129;48.012;10.352;2023-11-21T15:07:54;7.60;99.90
25170;DHT22;13129;48.012;10.352;2023-11-21T15:10:23;7.60;99.90
25170;DHT22;13129;48.012;10.352;2023-11-21T15:13:03;7.50;99.90
25170;DHT22;13129;48.012;10.352;2023-11-21T15:15:29;7.50;99.90
25170;DHT22;13129;48.012;10.352;2023-11-21T15:17:56;7.50;99.90
25170;DHT22;13129;48.012;10.352;2023-11-21T15:20:22;7.40;99.90
25170;DHT22;13129;48.012;10.352;2023-11-21T15:22:48;7.30;99.90
25170;DHT22;13129;48.012;10.352;2023-11-21T15:25:13;7.30;99.90
25170;DHT22;13129;48.012;10.352;2023-11-21T15:27:39;7.30;99.90
25170;DHT22;13129;48.012;10.352;2023-11-21T15:30:07;7.30;99.90
25170;DHT22;13129;48.012;10.352;2023-11-21T15:32:35;7.30;99.90
25170;DHT22;13129;48.012;10.352;2023-11-21T15:35:05;7.30;99.90
25170;DHT22;13129;48.012;10.352;2023-11-21T15:37:30;7.30;99.90
25170;DHT22;13129;48.012;10.352;2023-11-21T15:39:57;7.30;99.90
25170;DHT22;13129;48.012;10.352;2023-11-21T15:42:23;7.20;99.90
25170;DHT22;13129;48.012;10.352;2023-11-21T15:44:49;7.10;99.90
25170;DHT22;13129;48.012;10.352;2023-11-21T15:47:15;7.10;99.90
25170;DHT22;13129;48.012;10.352;2023-11-21T15:49:41;7.00;99.90
25170;DHT22;13129;48.012;10.352;2023-11-21T15:52:06;7.00;99.90
25170;DHT22;13129;48.012;10.352;2023-11-21T15:54:35;7.00;99.90
25170;DHT22;13129;48.012;10.352;2023-11-21T15:57:00;7.00;99.90
25170;DHT22;13129;48.012;10.352;2023-11-21T15:59:26;7.00;99.90
25170;DHT22;13129;48.012;10.352;2023-11-21T16:01:57;6.90;99.90
25170;DHT22;13129;48.012;10.352;2023-11-21T16:04:23;6.80;99.90
25170;DHT22;13129;48.012;10.352;2023-11-21T16:06:54;6.80;99.90
25170;DHT22;13129;48.012;10.352;2023-11-21T16:09:20;6.80;99.90
25170;DHT22;13129;48.012;10.352;2023-11-21T16:12:00;6.80;99.90
25170;DHT22;13129;48.012;10.352;2023-11-21T16:14:28;6.80;99.90
25170;DHT22;13129;48.012;10.352;2023-11-21T16:17:03;6.80;99.90
25170;DHT22;13129;48.012;10.352;2023-11-21T16:19:29;6.80;99.90
25170;DHT22;13129;48.012;10.352;2023-11-21T16:21:55;6.80;99.90
25170;DHT22;13129;48.012;10.352;2023-11-21T16:24:21;6.80;99.90
25170;DHT22;13129;48.012;10.352;2023-11-21T16:26:46;6.70;99.90
25170;DHT22;13129;48.012;10.352;2023-11-21T16:29:13;6.80;99.90
25170;DHT22;13129;48.012;10.352;2023-11-21T16:31:39;6.70;99.90
25170;DHT22;13129;48.012;10.352;2023-11-21T16:34:15;6.80;99.90
25170;DHT22;13129;48.012;10.352;2023-11-21T16:36:42;6.60;99.90
25170;DHT22;13129;48.012;10.352;2023-11-21T16:39:08;6.60;99.90
25170;DHT22;13129;48.012;10.352;2023-11-21T16:41:42;6.70;99.90
25170;DHT22;13129;48.012;10.352;2023-11-21T16:44:18;6.60;99.90
25170;DHT22;13129;48.012;10.352;2023-11-21T16:46:54;6.60;99.90
25170;DHT22;13129;48.012;10.352;2023-11-21T16:49:22;6.60;99.90
25170;DHT22;13129;48.012;10.352;2023-11-21T16:51:49;6.60;99.90
25170;DHT22;13129;48.012;10.352;2023-11-21T16:54:19;6.60;99.90
25170;DHT22;13129;48.012;10.352;2023-11-21T16:56:45;6.60;99.90
25170;DHT22;13129;48.012;10.352;2023-11-21T16:59:11;6.60;99.90
25170;DHT22;13129;48.012;10.352;2023-11-21T17:01:37;6.50;99.90
25170;DHT22;13129;48.012;10.352;2023-11-21T17:04:03;6.60;99.90
25170;DHT22;13129;48.012;10.352;2023-11-21T17:06:29;6.50;99.90
25170;DHT22;13129;48.012;10.352;2023-11-21T17:08:56;6.50;99.90
25170;DHT22;13129;48.012;10.352;2023-11-21T17:11:22;6.50;99.90
25170;DHT22;13129;48.012;10.352;2023-11-21T17:13:48;6.50;99.90
25170;DHT22;13129;48.012;10.352;2023-11-21T17:16:13;6.60;99.90
25170;DHT22;13129;48.012;10.352;2023-11-21T17:18:40;6.50;99.90
25170;DHT22;13129;48.012;10.352;2023-11-21T17:21:05;6.50;99.90
25170;DHT22;13129;48.012;10.352;2023-11-21T17:23:33;6.50;99.90
25170;DHT22;13129;48.012;10.352;2023-11-21T17:25:58;6.50;99.90
25170;DHT22;13129;48.012;10.352;2023-11-21T17:28:24;6.50;99.90
25170;DHT22;13129;48.012;10.352;2023-11-21T17:30:49;6.50;99.90
25170;DHT22;13129;48.012;10.352;2023-11-21T17:33:15;6.60;99.90
25170;DHT22;13129;48.012;10.352;2023-11-21T17:35:41;6.50;99.90
25170;DHT22;13129;48.012;10.352;2023-11-21T17:38:08;6.50;99.90
25170;DHT22;13129;48.012;10.352;2023-11-21T17:40:34;6.50;99.90
25170;DHT22;13129;48.012;10.352;2023-11-21T17:43:01;6.40;99.90
25170;DHT22;13129;48.012;10.352;2023-11-21T17:45:26;6.40;99.90
25170;DHT22;13129;48.012;10.352;2023-11-21T17:47:52;6.40;99.90
25170;DHT22;13129;48.012;10.352;2023-11-21T17:50:17;6.40;99.90
25170;DHT22;13129;48.012;10.352;2023-11-21T17:52:43;6.50;99.90
25170;DHT22;13129;48.012;10.352;2023-11-21T17:55:10;6.60;99.90
25170;DHT22;13129;48.012;10.352;2023-11-21T17:57:36;6.50;99.90
25170;DHT22;13129;48.012;10.352;2023-11-21T18:00:02;6.60;99.90
25170;DHT22;13129;48.012;10.352;2023-11-21T18:02:31;6.40;99.90
25170;DHT22;13129;48.012;10.352;2023-11-21T18:04:57;6.40;99.90
25170;DHT22;13129;48.012;10.352;2023-11-21T18:07:25;6.40;99.90
25170;DHT22;13129;48.012;10.352;2023-11-21T18:09:51;6.40;99.90
25170;DHT22;13129;48.012;10.352;2023-11-21T18:12:16;6.40;99.90
25170;DHT22;13129;48.012;10.352;2023-11-21T18:14:44;6.30;99.90
25170;DHT22;13129;48.012;10.352;2023-11-21T18:17:13;6.50;99.90
25170;DHT22;13129;48.012;10.352;2023-11-21T18:19:42;6.40;99.90
25170;DHT22;13129;48.012;10.352;2023-11-21T18:22:08;6.20;99.90
25170;DHT22;13129;48.012;10.352;2023-11-21T18:24:34;6.20;99.90
25170;DHT22;13129;48.012;10.352;2023-11-21T18:26:59;6.20;99.90
25170;DHT22;13129;48.012;10.352;2023-11-21T18:29:25;6.40;99.90
25170;DHT22;13129;48.012;10.352;2023-11-21T18:31:51;6.20;99.90
25170;DHT22;13129;48.012;10.352;2023-11-21T18:34:17;6.20;99.90
25170;DHT22;13129;48.012;10.352;2023-11-21T18:36:44;6.20;99.90
25170;DHT22;13129;48.012;10.352;2023-11-21T18:39:10;6.30;99.90
25170;DHT22;13129;48.012;10.352;2023-11-21T18:41:40;6.50;99.90
25170;DHT22;13129;48.012;10.352;2023-11-21T18:44:07;6.30;99.90
25170;DHT22;13129;48.012;10.352;2023-11-21T18:46:39;6.30;99.90
25170;DHT22;13129;48.012;10.352;2023-11-21T18:49:05;6.30;99.90
25170;DHT22;13129;48.012;10.352;2023-11-21T18:51:31;6.40;99.90
25170;DHT22;13129;48.012;10.352;2023-11-21T18:53:57;6.40;99.90
25170;DHT22;13129;48.012;10.352;2023-11-21T18:56:23;6.40;99.90
25170;DHT22;13129;48.012;10.352;2023-11-21T18:58:52;6.50;99.90
25170;DHT22;13129;48.012;10.352;2023-11-21T19:01:28;6.50;99.90
25170;DHT22;13129;48.012;10.352;2023-11-21T19:03:54;6.50;99.90
25170;DHT22;13129;48.012;10.352;2023-11-21T19:06:21;6.50;99.90
25170;DHT22;13129;48.012;10.352;2023-11-21T19:08:47;6.50;99.90
25170;DHT22;13129;48.012;10.352;2023-11-21T19:11:13;6.60;99.90
25170;DHT22;13129;48.012;10.352;2023-11-21T19:13:38;6.50;99.90
25170;DHT22;13129;48.012;10.352;2023-11-21T19:16:04;6.50;99.90
25170;DHT22;13129;48.012;10.352;2023-11-21T19:18:31;6.50;99.90
25170;DHT22;13129;48.012;10.352;2023-11-21T19:20:56;6.50;99.90
25170;DHT22;13129;48.012;10.352;2023-11-21T19:23:22;6.50;99.90
25170;DHT22;13129;48.012;10.352;2023-11-21T19:25:49;6.50;99.90
25170;DHT22;13129;48.012;10.352;2023-11-21T19:28:15;6.60;99.90
25170;DHT22;13129;48.012;10.352;2023-11-21T19:30:41;6.50;99.90
25170;DHT22;13129;48.012;10.352;2023-11-21T19:33:08;6.50;99.90
25170;DHT22;13129;48.012;10.352;2023-11-21T19:35:34;6.50;99.90
25170;DHT22;13129;48.012;10.352;2023-11-21T19:38:07;6.40;99.90
25170;DHT22;13129;48.012;10.352;2023-11-21T19:40:34;6.50;99.90
25170;DHT22;13129;48.012;10.352;2023-11-21T19:43:00;6.40;99.90
25170;DHT22;13129;48.012;10.352;2023-11-21T19:45:26;6.40;99.90
25170;DHT22;13129;48.012;10.352;2023-11-21T19:47:54;6.50;99.90
25170;DHT22;13129;48.012;10.352;2023-11-21T19:50:19;6.60;99.90
25170;DHT22;13129;48.012;10.352;2023-11-21T19:52:45;6.50;99.90
25170;DHT22;13129;48.012;10.352;2023-11-21T19:55:10;6.50;99.90
25170;DHT22;13129;48.012;10.352;2023-11-21T19:57:37;6.60;99.90
25170;DHT22;13129;48.012;10.352;2023-11-21T20:00:06;6.50;99.90
25170;DHT22;13129;48.012;10.352;2023-11-21T20:02:36;6.50;99.90
25170;DHT22;13129;48.012;10.352;2023-11-21T20:05:01;6.50;99.90
25170;DHT22;13129;48.012;10.352;2023-11-21T20:07:27;6.50;99.90
25170;DHT22;13129;48.012;10.352;2023-11-21T20:09:54;6.60;99.90
25170;DHT22;13129;48.012;10.352;2023-11-21T20:12:19;6.60;99.90
25170;DHT22;13129;48.012;10.352;2023-11-21T20:14:45;6.50;99.90
25170;DHT22;13129;48.012;10.352;2023-11-21T20:17:14;6.50;99.90